• Join FlightAware (Why Join?)
  • Login
  • US Flag 
05:43AM EDT


 

Airport Tracker/Info


-or-


 

Live Flight TrackerFlight Track Log ✈ EGF4393 ✈ 08-Jun-2013 ✈ KORD - KCWA

Flight Track Log - Related Links

Times and Time Zones

All times are in EDT time to prevent confusion due to time zone crossing. See the EGF4393 flight status page for this flight to view local times or setup timezone preferences in your user account.

Time Position Orientation Groundspeed Altitude Reporting Facility
EDT Latitude Longitude Course Direction KTS MPH feet Rate Location/Type
03:48PM 41.9667 -87.8000 346° North 232 267 3,400  Level Chicago TRACON
03:49PM 41.9642 -87.7933 117° Southeast 194 223 3,600 1,920 Climbing Chicago Center
03:50PM 42.2410 -87.9894 350° North  Level FlightAware Approximate
03:50PM 41.9814 -87.6769 79° East 262 302 6,100  Level Chicago Center
03:51PM 42.3340 -88.0127 350° North  Level FlightAware Approximate
03:51PM 42.0467 -87.6997 345° North 280 322 8,700  Level Chicago Center
03:52PM 42.4239 -88.0515 352° North  Level FlightAware Approximate
03:52PM 42.1197 -87.7211 348° North 292 336 11,600  Level Chicago Center
03:53PM 42.5143 -88.0809 324° Northwest  Level FlightAware Approximate
03:53PM 42.2053 -87.7142 North 306 352 13,200  Level Chicago Center
03:54PM 42.5970 -88.1100 346° North  Level FlightAware Approximate
03:54PM 42.3061 -87.7072 North 355 409 13,700  Level Chicago Center
03:55PM 42.4144 -87.6972 North 387 445 14,600 1,200 Climbing Chicago Center
03:56PM 42.5478 -87.6839 North 405 466 16,300 1,320 Climbing Chicago Center
03:57PM 42.6561 -87.6744 North 404 465 17,400 900 Climbing Chicago Center
03:58PM 42.7528 -87.7397 334° Northwest 391 450 18,200 840 Climbing Chicago Center
03:59PM 42.8431 -87.8206 327° Northwest 386 444 19,200 960 Climbing Chicago Center
04:00PM 42.9336 -87.9050 326° Northwest 392 451 20,300 1,020 Climbing Chicago Center
04:01PM 43.0392 -88.0022 326° Northwest 393 452 21,400 780 Climbing Chicago Center
04:02PM 43.1308 -88.0883 326° Northwest 398 458 22,000 240 Climbing Chicago Center
04:03PM 43.2264 -88.1767 326° Northwest 412 474 22,000  Level Chicago Center
04:04PM 43.3206 -88.2636 326° Northwest 409 471 22,000  Level Chicago Center
04:05PM 43.4128 -88.3508 326° Northwest 406 467 22,000  Level Chicago Center
04:06PM 43.4872 -88.4203 326° Northwest 403 464 22,000  Level Minneapolis Center
04:06PM 43.5175 -88.4481 326° Northwest 402 463 22,000  Level Chicago Center
04:07PM 43.6078 -88.5342 325° Northwest 401 461 22,000 -360 Level Chicago Center
04:08PM 43.6994 -88.6228 325° Northwest 404 465 21,300 -780 Descending Chicago Center
04:09PM 43.7597 -88.6797 326° Northwest 399 459 20,700 -1,020 Descending Minneapolis Center
04:09PM 43.7894 -88.7092 324° Northwest 396 456 20,300 -1,320 Descending Chicago Center
04:10PM 43.8928 -88.8064 326° Northwest 387 445 18,900 -1,380 Descending Chicago Center
04:11PM 43.9783 -88.8892 325° Northwest 379 436 17,500 -1,260 Descending Chicago Center
04:12PM 44.0628 -88.9700 325° Northwest 371 427 16,300 -1,080 Descending Chicago Center
04:13PM 44.1508 -89.0417 330° Northwest 367 422 15,300 -1,020 Descending Chicago Center
04:14PM 44.2144 -89.0928 330° Northwest 379 436 14,600 -1,020 Descending Minneapolis Center
04:15PM 44.3075 -89.1675 330° Northwest 373 429 13,600 -1,260 Descending Minneapolis Center
04:16PM 44.3992 -89.2394 331° Northwest 364 419 12,100 -1,440 Descending Minneapolis Center
04:17PM 44.4822 -89.3047 331° Northwest 325 374 10,700 -1,620 Descending Minneapolis Center
04:18PM 44.5467 -89.3558 331° Northwest 279 321 8,800 -2,160 Descending Minneapolis Center
04:19PM 44.6125 -89.4092 330° Northwest 266 306 6,300 -1,980 Descending Minneapolis Center
04:20PM 44.6742 -89.4583 330° Northwest 244 281 4,800 -1,260 Descending Minneapolis Center
04:21PM 44.7394 -89.5086 331° Northwest 255 293 3,800 -1,020 Descending Minneapolis Center